Arnaudville, Louisiana
Current Conditions -  °F | °C
As of 10:53 PM on Sunday 19 Oct 2014 (Local Time) from KLFT Reporting Station
Clear Clear  
Wind Chill: 61°   Ceiling: Unl
Heat Index: 61°   Visibility: 10mi
Dew Point: 57°   Wind: 3mph
Humidity: 87%   Direction: 50°NE
Pressure: 30.07"   Gusts: NA
Location:  30.4°N, 91.93°W
Report Text: KLFT 200353Z AUTO 05003KT 10SM CLR 16/14 A3007 RMK AO2 SLP183 T01610139 $
Loading
Personal Weather Stations






























Interactive Weather Map New forecast layout! Learn more

10-Day Weather Forecast

Advertisements
Track Severe Weather on mobile